sensor_id;sensor_type;location;lat;lon;timestamp;P1;durP1;ratioP1;P2;durP2;ratioP2
52740;SDS011;38634;52.138;9.912;2023-03-09T00:02:14;13.85;;;4.55;;
52740;SDS011;38634;52.138;9.912;2023-03-09T00:04:59;8.73;;;3.55;;
52740;SDS011;38634;52.138;9.912;2023-03-09T00:07:44;8.52;;;3.45;;
52740;SDS011;38634;52.138;9.912;2023-03-09T00:10:28;10.25;;;3.47;;
52740;SDS011;38634;52.138;9.912;2023-03-09T00:13:13;11.15;;;4.43;;
52740;SDS011;38634;52.138;9.912;2023-03-09T00:16:06;7.80;;;3.08;;
52740;SDS011;38634;52.138;9.912;2023-03-09T00:18:57;10.70;;;3.22;;
52740;SDS011;38634;52.138;9.912;2023-03-09T00:21:42;10.88;;;3.55;;
52740;SDS011;38634;52.138;9.912;2023-03-09T00:24:32;9.45;;;3.22;;
52740;SDS011;38634;52.138;9.912;2023-03-09T00:27:16;7.90;;;3.20;;
52740;SDS011;38634;52.138;9.912;2023-03-09T00:30:01;7.70;;;2.85;;
52740;SDS011;38634;52.138;9.912;2023-03-09T00:32:47;5.97;;;3.13;;
52740;SDS011;38634;52.138;9.912;2023-03-09T00:35:34;5.20;;;2.60;;
52740;SDS011;38634;52.138;9.912;2023-03-09T00:38:19;8.52;;;3.55;;
52740;SDS011;38634;52.138;9.912;2023-03-09T00:41:04;10.40;;;4.28;;
52740;SDS011;38634;52.138;9.912;2023-03-09T00:43:49;5.72;;;3.55;;
52740;SDS011;38634;52.138;9.912;2023-03-09T00:46:34;5.00;;;3.28;;
52740;SDS011;38634;52.138;9.912;2023-03-09T00:49:19;6.30;;;3.17;;
52740;SDS011;38634;52.138;9.912;2023-03-09T00:52:04;6.35;;;3.97;;
52740;SDS011;38634;52.138;9.912;2023-03-09T00:54:49;5.57;;;3.60;;
52740;SDS011;38634;52.138;9.912;2023-03-09T00:57:36;9.88;;;3.95;;
52740;SDS011;38634;52.138;9.912;2023-03-09T01:00:21;8.25;;;3.90;;
52740;SDS011;38634;52.138;9.912;2023-03-09T01:03:06;6.78;;;2.80;;
52740;SDS011;38634;52.138;9.912;2023-03-09T01:05:51;10.45;;;4.70;;
52740;SDS011;38634;52.138;9.912;2023-03-09T01:08:35;7.43;;;3.95;;
52740;SDS011;38634;52.138;9.912;2023-03-09T01:11:20;6.30;;;3.83;;
52740;SDS011;38634;52.138;9.912;2023-03-09T01:14:05;4.05;;;3.00;;
52740;SDS011;38634;52.138;9.912;2023-03-09T01:16:49;5.22;;;3.45;;
52740;SDS011;38634;52.138;9.912;2023-03-09T01:19:35;4.32;;;3.15;;
52740;SDS011;38634;52.138;9.912;2023-03-09T01:22:19;4.60;;;3.60;;
52740;SDS011;38634;52.138;9.912;2023-03-09T01:25:04;5.45;;;2.88;;
52740;SDS011;38634;52.138;9.912;2023-03-09T01:27:50;6.30;;;3.30;;
52740;SDS011;38634;52.138;9.912;2023-03-09T01:30:35;4.88;;;3.25;;
52740;SDS011;38634;52.138;9.912;2023-03-09T01:33:20;4.03;;;3.47;;
52740;SDS011;38634;52.138;9.912;2023-03-09T01:36:08;3.38;;;3.05;;
52740;SDS011;38634;52.138;9.912;2023-03-09T01:39:00;6.35;;;3.75;;
52740;SDS011;38634;52.138;9.912;2023-03-09T01:41:44;7.25;;;4.07;;
52740;SDS011;38634;52.138;9.912;2023-03-09T01:44:29;3.17;;;2.80;;
52740;SDS011;38634;52.138;9.912;2023-03-09T01:47:14;7.40;;;3.17;;
52740;SDS011;38634;52.138;9.912;2023-03-09T01:49:58;8.27;;;3.63;;
52740;SDS011;38634;52.138;9.912;2023-03-09T01:52:44;5.72;;;3.08;;
52740;SDS011;38634;52.138;9.912;2023-03-09T01:55:31;8.25;;;4.47;;
52740;SDS011;38634;52.138;9.912;2023-03-09T01:58:22;7.53;;;3.92;;
52740;SDS011;38634;52.138;9.912;2023-03-09T02:01:10;7.63;;;3.50;;
52740;SDS011;38634;52.138;9.912;2023-03-09T02:03:55;6.28;;;3.83;;
52740;SDS011;38634;52.138;9.912;2023-03-09T02:06:46;5.60;;;3.20;;
52740;SDS011;38634;52.138;9.912;2023-03-09T02:09:33;3.67;;;3.20;;
52740;SDS011;38634;52.138;9.912;2023-03-09T02:12:22;4.50;;;3.28;;
52740;SDS011;38634;52.138;9.912;2023-03-09T02:15:07;8.40;;;3.65;;
52740;SDS011;38634;52.138;9.912;2023-03-09T02:17:52;7.88;;;3.83;;
52740;SDS011;38634;52.138;9.912;2023-03-09T02:26:55;4.53;;;2.95;;
52740;SDS011;38634;52.138;9.912;2023-03-09T02:29:50;4.03;;;2.83;;
52740;SDS011;38634;52.138;9.912;2023-03-09T02:32:35;5.47;;;2.70;;
52740;SDS011;38634;52.138;9.912;2023-03-09T08:37:59;13.90;;;4.40;;
52740;SDS011;38634;52.138;9.912;2023-03-09T08:40:47;11.07;;;4.20;;
52740;SDS011;38634;52.138;9.912;2023-03-09T08:43:31;12.57;;;4.07;;
52740;SDS011;38634;52.138;9.912;2023-03-09T08:46:18;9.27;;;4.30;;
52740;SDS011;38634;52.138;9.912;2023-03-09T08:49:03;10.45;;;3.60;;
52740;SDS011;38634;52.138;9.912;2023-03-09T08:51:47;7.35;;;3.25;;
52740;SDS011;38634;52.138;9.912;2023-03-09T08:54:34;9.50;;;3.47;;
52740;SDS011;38634;52.138;9.912;2023-03-09T08:57:19;11.77;;;3.75;;
52740;SDS011;38634;52.138;9.912;2023-03-09T09:00:08;9.68;;;3.45;;
52740;SDS011;38634;52.138;9.912;2023-03-09T09:02:54;11.13;;;3.80;;
52740;SDS011;38634;52.138;9.912;2023-03-09T09:05:39;10.02;;;3.83;;
52740;SDS011;38634;52.138;9.912;2023-03-09T09:08:24;14.23;;;5.47;;
52740;SDS011;38634;52.138;9.912;2023-03-09T09:11:09;9.48;;;3.25;;
52740;SDS011;38634;52.138;9.912;2023-03-09T09:13:57;10.57;;;4.38;;
52740;SDS011;38634;52.138;9.912;2023-03-09T09:16:42;11.70;;;3.80;;
52740;SDS011;38634;52.138;9.912;2023-03-09T09:19:27;10.90;;;3.63;;
52740;SDS011;38634;52.138;9.912;2023-03-09T09:22:14;10.82;;;4.60;;
52740;SDS011;38634;52.138;9.912;2023-03-09T09:24:58;5.65;;;2.60;;
52740;SDS011;38634;52.138;9.912;2023-03-09T09:27:43;9.23;;;3.45;;
52740;SDS011;38634;52.138;9.912;2023-03-09T09:30:28;6.90;;;2.92;;
52740;SDS011;38634;52.138;9.912;2023-03-09T09:33:16;7.20;;;3.55;;
52740;SDS011;38634;52.138;9.912;2023-03-09T09:36:03;10.68;;;3.72;;
52740;SDS011;38634;52.138;9.912;2023-03-09T09:38:51;11.57;;;4.68;;
52740;SDS011;38634;52.138;9.912;2023-03-09T09:41:40;7.93;;;3.22;;
52740;SDS011;38634;52.138;9.912;2023-03-09T09:44:41;9.57;;;3.13;;
52740;SDS011;38634;52.138;9.912;2023-03-09T09:47:34;6.57;;;3.10;;
52740;SDS011;38634;52.138;9.912;2023-03-09T09:50:19;7.95;;;3.25;;
52740;SDS011;38634;52.138;9.912;2023-03-09T09:53:12;9.75;;;4.05;;
52740;SDS011;38634;52.138;9.912;2023-03-09T09:56:21;9.57;;;3.45;;
52740;SDS011;38634;52.138;9.912;2023-03-09T09:59:19;7.85;;;3.15;;
52740;SDS011;38634;52.138;9.912;2023-03-09T10:05:43;8.48;;;3.42;;
52740;SDS011;38634;52.138;9.912;2023-03-09T10:08:43;8.18;;;4.25;;
52740;SDS011;38634;52.138;9.912;2023-03-09T10:11:40;5.70;;;3.97;;
52740;SDS011;38634;52.138;9.912;2023-03-09T10:17:54;12.23;;;4.13;;
52740;SDS011;38634;52.138;9.912;2023-03-09T10:21:00;14.25;;;5.13;;
52740;SDS011;38634;52.138;9.912;2023-03-09T10:23:46;29.73;;;8.75;;
52740;SDS011;38634;52.138;9.912;2023-03-09T10:26:35;13.35;;;5.32;;
52740;SDS011;38634;52.138;9.912;2023-03-09T10:32:26;18.33;;;6.97;;
52740;SDS011;38634;52.138;9.912;2023-03-09T10:36:07;11.82;;;4.90;;
52740;SDS011;38634;52.138;9.912;2023-03-09T10:39:11;19.75;;;7.18;;
52740;SDS011;38634;52.138;9.912;2023-03-09T10:42:12;12.50;;;4.63;;
52740;SDS011;38634;52.138;9.912;2023-03-09T10:48:23;23.88;;;7.38;;
52740;SDS011;38634;52.138;9.912;2023-03-09T10:51:26;13.90;;;6.57;;
52740;SDS011;38634;52.138;9.912;2023-03-09T10:54:34;24.23;;;7.95;;
52740;SDS011;38634;52.138;9.912;2023-03-09T10:57:22;9.30;;;4.13;;
52740;SDS011;38634;52.138;9.912;2023-03-09T11:00:15;22.60;;;7.57;;
52740;SDS011;38634;52.138;9.912;2023-03-09T11:03:00;22.55;;;7.57;;
52740;SDS011;38634;52.138;9.912;2023-03-09T11:05:45;10.18;;;4.32;;
52740;SDS011;38634;52.138;9.912;2023-03-09T11:08:29;9.23;;;4.22;;
52740;SDS011;38634;52.138;9.912;2023-03-09T11:11:16;21.63;;;7.10;;
52740;SDS011;38634;52.138;9.912;2023-03-09T11:14:03;19.33;;;6.45;;
52740;SDS011;38634;52.138;9.912;2023-03-09T11:16:52;15.95;;;6.13;;
52740;SDS011;38634;52.138;9.912;2023-03-09T11:19:41;15.07;;;6.30;;
52740;SDS011;38634;52.138;9.912;2023-03-09T11:22:26;19.17;;;6.75;;
52740;SDS011;38634;52.138;9.912;2023-03-09T11:25:16;19.55;;;6.78;;
52740;SDS011;38634;52.138;9.912;2023-03-09T11:28:25;16.30;;;6.65;;
52740;SDS011;38634;52.138;9.912;2023-03-09T11:31:23;16.17;;;5.88;;
52740;SDS011;38634;52.138;9.912;2023-03-09T11:34:26;14.80;;;5.10;;
52740;SDS011;38634;52.138;9.912;2023-03-09T11:40:24;30.20;;;7.95;;
52740;SDS011;38634;52.138;9.912;2023-03-09T11:43:29;30.92;;;8.18;;
52740;SDS011;38634;52.138;9.912;2023-03-09T11:46:16;35.60;;;8.80;;
52740;SDS011;38634;52.138;9.912;2023-03-09T11:49:13;30.35;;;7.47;;
52740;SDS011;38634;52.138;9.912;2023-03-09T11:52:03;28.23;;;7.57;;
52740;SDS011;38634;52.138;9.912;2023-03-09T11:54:48;35.85;;;8.98;;
52740;SDS011;38634;52.138;9.912;2023-03-09T11:57:37;16.17;;;4.90;;
52740;SDS011;38634;52.138;9.912;2023-03-09T12:00:26;14.55;;;5.93;;
52740;SDS011;38634;52.138;9.912;2023-03-09T12:03:13;34.47;;;9.95;;
52740;SDS011;38634;52.138;9.912;2023-03-09T12:06:01;24.02;;;6.20;;
52740;SDS011;38634;52.138;9.912;2023-03-09T12:08:52;17.08;;;5.82;;
52740;SDS011;38634;52.138;9.912;2023-03-09T12:11:50;26.13;;;7.63;;
52740;SDS011;38634;52.138;9.912;2023-03-09T12:14:48;20.02;;;7.72;;
52740;SDS011;38634;52.138;9.912;2023-03-09T12:17:37;15.02;;;5.63;;
52740;SDS011;38634;52.138;9.912;2023-03-09T12:20:40;22.45;;;8.02;;
52740;SDS011;38634;52.138;9.912;2023-03-09T12:23:43;10.43;;;4.60;;
52740;SDS011;38634;52.138;9.912;2023-03-09T12:37:31;16.17;;;5.30;;
52740;SDS011;38634;52.138;9.912;2023-03-09T12:40:49;13.45;;;5.28;;
52740;SDS011;38634;52.138;9.912;2023-03-09T12:44:02;7.20;;;4.47;;
52740;SDS011;38634;52.138;9.912;2023-03-09T12:47:17;15.27;;;5.18;;
52740;SDS011;38634;52.138;9.912;2023-03-09T12:54:19;11.32;;;4.60;;
52740;SDS011;38634;52.138;9.912;2023-03-09T13:01:52;22.75;;;7.30;;
52740;SDS011;38634;52.138;9.912;2023-03-09T13:04:39;7.25;;;3.45;;
52740;SDS011;38634;52.138;9.912;2023-03-09T13:08:01;24.00;;;7.53;;
52740;SDS011;38634;52.138;9.912;2023-03-09T13:17:40;9.13;;;4.22;;
52740;SDS011;38634;52.138;9.912;2023-03-09T13:21:48;27.88;;;8.38;;
52740;SDS011;38634;52.138;9.912;2023-03-09T13:33:15;10.70;;;4.38;;
52740;SDS011;38634;52.138;9.912;2023-03-09T13:40:36;5.78;;;3.58;;
52740;SDS011;38634;52.138;9.912;2023-03-09T13:44:20;7.30;;;3.60;;
52740;SDS011;38634;52.138;9.912;2023-03-09T13:47:34;23.27;;;7.40;;
52740;SDS011;38634;52.138;9.912;2023-03-09T14:03:00;10.93;;;4.00;;
52740;SDS011;38634;52.138;9.912;2023-03-09T14:06:02;4.20;;;2.28;;
52740;SDS011;38634;52.138;9.912;2023-03-09T14:40:27;21.88;;;6.05;;
52740;SDS011;38634;52.138;9.912;2023-03-09T14:48:32;7.50;;;4.00;;
52740;SDS011;38634;52.138;9.912;2023-03-09T14:51:29;17.95;;;6.07;;
52740;SDS011;38634;52.138;9.912;2023-03-09T15:04:33;7.25;;;3.20;;
52740;SDS011;38634;52.138;9.912;2023-03-09T15:07:51;5.85;;;3.13;;
52740;SDS011;38634;52.138;9.912;2023-03-09T15:15:23;22.75;;;7.15;;
52740;SDS011;38634;52.138;9.912;2023-03-09T15:34:18;13.93;;;4.88;;
52740;SDS011;38634;52.138;9.912;2023-03-09T15:53:45;7.32;;;3.97;;
52740;SDS011;38634;52.138;9.912;2023-03-09T16:04:47;5.38;;;3.90;;
52740;SDS011;38634;52.138;9.912;2023-03-09T16:08:43;7.10;;;3.42;;
52740;SDS011;38634;52.138;9.912;2023-03-09T16:11:55;7.70;;;3.80;;
52740;SDS011;38634;52.138;9.912;2023-03-09T16:23:23;17.05;;;5.82;;
52740;SDS011;38634;52.138;9.912;2023-03-09T16:57:40;22.75;;;7.63;;
52740;SDS011;38634;52.138;9.912;2023-03-09T17:17:10;11.93;;;4.55;;
52740;SDS011;38634;52.138;9.912;2023-03-09T17:27:07;4.75;;;2.60;;
52740;SDS011;38634;52.138;9.912;2023-03-09T17:37:06;15.85;;;5.88;;
52740;SDS011;38634;52.138;9.912;2023-03-09T17:52:35;3.25;;;1.95;;
52740;SDS011;38634;52.138;9.912;2023-03-09T18:17:16;5.85;;;4.20;;
52740;SDS011;38634;52.138;9.912;2023-03-09T18:20:38;10.23;;;3.58;;
52740;SDS011;38634;52.138;9.912;2023-03-09T18:23:25;2.88;;;2.67;;
52740;SDS011;38634;52.138;9.912;2023-03-09T18:27:19;7.15;;;2.75;;
52740;SDS011;38634;52.138;9.912;2023-03-09T18:30:05;5.50;;;2.85;;
52740;SDS011;38634;52.138;9.912;2023-03-09T18:32:53;10.75;;;3.72;;
52740;SDS011;38634;52.138;9.912;2023-03-09T18:35:38;10.15;;;3.53;;
52740;SDS011;38634;52.138;9.912;2023-03-09T18:38:27;13.38;;;5.30;;
52740;SDS011;38634;52.138;9.912;2023-03-09T18:41:12;12.07;;;4.28;;
52740;SDS011;38634;52.138;9.912;2023-03-09T18:43:57;8.90;;;3.83;;
52740;SDS011;38634;52.138;9.912;2023-03-09T18:46:42;5.18;;;3.22;;
52740;SDS011;38634;52.138;9.912;2023-03-09T18:49:26;5.93;;;3.30;;
52740;SDS011;38634;52.138;9.912;2023-03-09T18:52:13;6.10;;;3.08;;
52740;SDS011;38634;52.138;9.912;2023-03-09T18:54:58;4.53;;;2.90;;
52740;SDS011;38634;52.138;9.912;2023-03-09T18:57:43;5.28;;;3.20;;
52740;SDS011;38634;52.138;9.912;2023-03-09T19:00:27;5.18;;;3.40;;
52740;SDS011;38634;52.138;9.912;2023-03-09T19:03:12;3.05;;;2.75;;
52740;SDS011;38634;52.138;9.912;2023-03-09T19:06:05;5.00;;;3.45;;
52740;SDS011;38634;52.138;9.912;2023-03-09T19:09:00;4.88;;;3.50;;
52740;SDS011;38634;52.138;9.912;2023-03-09T19:11:44;3.40;;;3.10;;
52740;SDS011;38634;52.138;9.912;2023-03-09T19:14:29;3.33;;;3.03;;
52740;SDS011;38634;52.138;9.912;2023-03-09T19:17:13;3.05;;;2.75;;
52740;SDS011;38634;52.138;9.912;2023-03-09T19:19:58;4.30;;;2.85;;
52740;SDS011;38634;52.138;9.912;2023-03-09T19:22:43;3.45;;;3.15;;
52740;SDS011;38634;52.138;9.912;2023-03-09T19:25:27;2.97;;;2.67;;
52740;SDS011;38634;52.138;9.912;2023-03-09T19:28:12;4.03;;;3.47;;
52740;SDS011;38634;52.138;9.912;2023-03-09T19:31:03;3.83;;;3.33;;
52740;SDS011;38634;52.138;9.912;2023-03-09T19:33:52;3.30;;;3.00;;
52740;SDS011;38634;52.138;9.912;2023-03-09T19:36:37;5.43;;;3.97;;
52740;SDS011;38634;52.138;9.912;2023-03-09T19:39:25;4.30;;;2.58;;
52740;SDS011;38634;52.138;9.912;2023-03-09T19:42:22;4.55;;;3.45;;
52740;SDS011;38634;52.138;9.912;2023-03-09T19:45:07;4.28;;;3.13;;
52740;SDS011;38634;52.138;9.912;2023-03-09T19:47:52;6.32;;;4.70;;
52740;SDS011;38634;52.138;9.912;2023-03-09T19:50:36;4.90;;;3.35;;
52740;SDS011;38634;52.138;9.912;2023-03-09T19:53:21;5.55;;;4.13;;
52740;SDS011;38634;52.138;9.912;2023-03-09T19:56:10;5.05;;;3.83;;
52740;SDS011;38634;52.138;9.912;2023-03-09T19:59:10;3.50;;;3.10;;
52740;SDS011;38634;52.138;9.912;2023-03-09T20:01:57;3.90;;;3.15;;
52740;SDS011;38634;52.138;9.912;2023-03-09T20:04:42;6.13;;;4.28;;
52740;SDS011;38634;52.138;9.912;2023-03-09T20:07:26;4.90;;;3.88;;
52740;SDS011;38634;52.138;9.912;2023-03-09T20:10:11;4.78;;;3.42;;
52740;SDS011;38634;52.138;9.912;2023-03-09T20:12:56;4.38;;;3.20;;
52740;SDS011;38634;52.138;9.912;2023-03-09T20:15:40;12.23;;;3.88;;
52740;SDS011;38634;52.138;9.912;2023-03-09T20:18:25;11.23;;;3.83;;
52740;SDS011;38634;52.138;9.912;2023-03-09T20:21:11;7.80;;;2.92;;
52740;SDS011;38634;52.138;9.912;2023-03-09T20:23:58;4.63;;;3.92;;
52740;SDS011;38634;52.138;9.912;2023-03-09T20:26:44;7.18;;;3.70;;
52740;SDS011;38634;52.138;9.912;2023-03-09T20:29:30;4.35;;;3.50;;
52740;SDS011;38634;52.138;9.912;2023-03-09T20:32:15;4.88;;;3.40;;
52740;SDS011;38634;52.138;9.912;2023-03-09T20:34:59;4.70;;;3.50;;
52740;SDS011;38634;52.138;9.912;2023-03-09T20:37:44;5.65;;;4.32;;
52740;SDS011;38634;52.138;9.912;2023-03-09T20:40:29;5.15;;;3.55;;
52740;SDS011;38634;52.138;9.912;2023-03-09T20:43:15;6.25;;;4.32;;
52740;SDS011;38634;52.138;9.912;2023-03-09T20:46:00;4.30;;;3.10;;
52740;SDS011;38634;52.138;9.912;2023-03-09T20:48:47;6.40;;;3.92;;
52740;SDS011;38634;52.138;9.912;2023-03-09T20:51:35;4.50;;;3.33;;
52740;SDS011;38634;52.138;9.912;2023-03-09T20:54:20;3.80;;;3.40;;
52740;SDS011;38634;52.138;9.912;2023-03-09T20:57:07;6.82;;;6.13;;
52740;SDS011;38634;52.138;9.912;2023-03-09T20:59:52;3.45;;;3.15;;
52740;SDS011;38634;52.138;9.912;2023-03-09T21:02:38;10.57;;;3.67;;
52740;SDS011;38634;52.138;9.912;2023-03-09T21:05:25;3.22;;;2.92;;
52740;SDS011;38634;52.138;9.912;2023-03-09T21:08:10;3.83;;;2.65;;
52740;SDS011;38634;52.138;9.912;2023-03-09T21:10:55;7.15;;;3.95;;
52740;SDS011;38634;52.138;9.912;2023-03-09T21:13:40;4.53;;;3.30;;
52740;SDS011;38634;52.138;9.912;2023-03-09T21:16:24;6.00;;;4.50;;
52740;SDS011;38634;52.138;9.912;2023-03-09T21:19:09;5.13;;;3.65;;
52740;SDS011;38634;52.138;9.912;2023-03-09T21:21:54;4.70;;;3.40;;
52740;SDS011;38634;52.138;9.912;2023-03-09T21:24:39;4.50;;;3.70;;
52740;SDS011;38634;52.138;9.912;2023-03-09T21:27:24;11.05;;;4.00;;
52740;SDS011;38634;52.138;9.912;2023-03-09T21:30:09;9.38;;;3.33;;
52740;SDS011;38634;52.138;9.912;2023-03-09T21:32:55;3.13;;;2.80;;
52740;SDS011;38634;52.138;9.912;2023-03-09T21:35:41;6.05;;;3.10;;
52740;SDS011;38634;52.138;9.912;2023-03-09T21:38:29;4.78;;;3.20;;
52740;SDS011;38634;52.138;9.912;2023-03-09T21:41:14;4.15;;;3.38;;
52740;SDS011;38634;52.138;9.912;2023-03-09T21:44:00;4.65;;;3.03;;
52740;SDS011;38634;52.138;9.912;2023-03-09T21:46:44;5.53;;;3.42;;
52740;SDS011;38634;52.138;9.912;2023-03-09T21:49:29;4.50;;;3.75;;
52740;SDS011;38634;52.138;9.912;2023-03-09T21:52:14;4.60;;;3.30;;
52740;SDS011;38634;52.138;9.912;2023-03-09T21:54:59;3.50;;;2.92;;
52740;SDS011;38634;52.138;9.912;2023-03-09T21:57:43;3.40;;;2.53;;
52740;SDS011;38634;52.138;9.912;2023-03-09T22:00:28;5.90;;;3.17;;
52740;SDS011;38634;52.138;9.912;2023-03-09T22:03:14;4.05;;;3.00;;
52740;SDS011;38634;52.138;9.912;2023-03-09T22:05:58;3.10;;;2.80;;
52740;SDS011;38634;52.138;9.912;2023-03-09T22:08:43;4.78;;;3.67;;
52740;SDS011;38634;52.138;9.912;2023-03-09T22:11:29;4.65;;;3.25;;
52740;SDS011;38634;52.138;9.912;2023-03-09T22:14:15;4.53;;;3.58;;
52740;SDS011;38634;52.138;9.912;2023-03-09T22:16:59;4.80;;;3.35;;
52740;SDS011;38634;52.138;9.912;2023-03-09T22:19:44;4.55;;;4.13;;
52740;SDS011;38634;52.138;9.912;2023-03-09T22:22:29;4.47;;;3.45;;
52740;SDS011;38634;52.138;9.912;2023-03-09T22:25:13;4.88;;;3.38;;
52740;SDS011;38634;52.138;9.912;2023-03-09T22:27:58;4.18;;;3.17;;
52740;SDS011;38634;52.138;9.912;2023-03-09T22:30:45;4.38;;;3.20;;
52740;SDS011;38634;52.138;9.912;2023-03-09T22:33:30;5.07;;;3.70;;
52740;SDS011;38634;52.138;9.912;2023-03-09T22:36:19;5.60;;;3.78;;
52740;SDS011;38634;52.138;9.912;2023-03-09T22:39:04;6.18;;;4.53;;
52740;SDS011;38634;52.138;9.912;2023-03-09T22:41:49;5.82;;;3.92;;
52740;SDS011;38634;52.138;9.912;2023-03-09T22:44:34;4.10;;;3.47;;
52740;SDS011;38634;52.138;9.912;2023-03-09T22:47:19;9.93;;;3.85;;
52740;SDS011;38634;52.138;9.912;2023-03-09T22:50:04;4.18;;;3.40;;
52740;SDS011;38634;52.138;9.912;2023-03-09T22:52:50;6.60;;;4.10;;
52740;SDS011;38634;52.138;9.912;2023-03-09T22:55:34;4.05;;;3.08;;
52740;SDS011;38634;52.138;9.912;2023-03-09T22:58:19;7.15;;;4.07;;
52740;SDS011;38634;52.138;9.912;2023-03-09T23:01:04;5.68;;;3.45;;
52740;SDS011;38634;52.138;9.912;2023-03-09T23:04:08;4.45;;;3.30;;
52740;SDS011;38634;52.138;9.912;2023-03-09T23:06:53;5.30;;;3.90;;
52740;SDS011;38634;52.138;9.912;2023-03-09T23:09:38;4.90;;;3.53;;
52740;SDS011;38634;52.138;9.912;2023-03-09T23:12:22;5.20;;;3.67;;
52740;SDS011;38634;52.138;9.912;2023-03-09T23:15:07;6.30;;;3.92;;
52740;SDS011;38634;52.138;9.912;2023-03-09T23:17:52;5.07;;;4.15;;
52740;SDS011;38634;52.138;9.912;2023-03-09T23:20:38;4.45;;;3.42;;
52740;SDS011;38634;52.138;9.912;2023-03-09T23:23:23;5.13;;;3.60;;
52740;SDS011;38634;52.138;9.912;2023-03-09T23:26:08;6.45;;;3.75;;
52740;SDS011;38634;52.138;9.912;2023-03-09T23:28:52;5.28;;;3.83;;
52740;SDS011;38634;52.138;9.912;2023-03-09T23:31:37;5.45;;;3.67;;
52740;SDS011;38634;52.138;9.912;2023-03-09T23:34:21;6.05;;;5.45;;
52740;SDS011;38634;52.138;9.912;2023-03-09T23:37:06;12.63;;;4.03;;
52740;SDS011;38634;52.138;9.912;2023-03-09T23:39:51;5.57;;;3.97;;
52740;SDS011;38634;52.138;9.912;2023-03-09T23:42:36;5.90;;;3.90;;
52740;SDS011;38634;52.138;9.912;2023-03-09T23:45:20;8.80;;;3.30;;
52740;SDS011;38634;52.138;9.912;2023-03-09T23:48:05;11.55;;;4.05;;
52740;SDS011;38634;52.138;9.912;2023-03-09T23:50:49;11.00;;;3.83;;
52740;SDS011;38634;52.138;9.912;2023-03-09T23:53:34;11.93;;;4.15;;
52740;SDS011;38634;52.138;9.912;2023-03-09T23:56:19;9.63;;;3.92;;
52740;SDS011;38634;52.138;9.912;2023-03-09T23:59:04;10.90;;;3.80;;
